createdAt,value
2022-10-22T00:07:32.367Z,13.29
2022-10-22T00:17:32.502Z,13.20
2022-10-22T00:27:32.684Z,13.03
2022-10-22T00:37:33.115Z,12.88
2022-10-22T00:47:32.989Z,12.82
2022-10-22T00:57:33.139Z,12.96
2022-10-22T01:07:33.319Z,12.81
2022-10-22T01:17:33.455Z,12.67
2022-10-22T01:27:33.637Z,12.69
2022-10-22T01:37:33.783Z,12.60
2022-10-22T01:47:33.971Z,12.48
2022-10-22T01:57:34.413Z,12.46
2022-10-22T02:07:34.269Z,12.41
2022-10-22T02:17:34.404Z,12.33
2022-10-22T02:27:34.587Z,12.16
2022-10-22T02:37:34.721Z,12.13
2022-10-22T02:47:35.213Z,12.13
2022-10-22T02:57:35.031Z,12.15
2022-10-22T03:07:35.208Z,12.27
2022-10-22T03:17:35.338Z,12.19
2022-10-22T03:27:35.523Z,12.41
2022-10-22T03:37:35.658Z,12.66
2022-10-22T03:47:35.966Z,13.07
2022-10-22T03:57:36.002Z,13.24
2022-10-22T04:07:36.187Z,13.37
2022-10-22T04:17:36.323Z,13.55
2022-10-22T04:27:36.532Z,13.15
2022-10-22T04:37:36.742Z,13.00
2022-10-22T04:47:36.892Z,12.84
2022-10-22T04:57:37.273Z,12.59
2022-10-22T05:07:37.580Z,12.34
2022-10-22T05:17:37.645Z,12.06
2022-10-22T05:27:37.970Z,11.85
2022-10-22T05:37:38.039Z,11.89
2022-10-22T05:47:38.035Z,11.96
2022-10-22T05:57:38.321Z,12.11
2022-10-22T06:07:38.401Z,12.23
2022-10-22T06:17:38.545Z,12.29
2022-10-22T06:27:38.872Z,12.39
2022-10-22T06:37:39.291Z,12.48
2022-10-22T06:47:39.627Z,12.57
2022-10-22T06:57:40.573Z,12.71
2022-10-22T07:07:39.573Z,13.27
2022-10-22T07:27:39.900Z,13.62
2022-10-22T07:37:40.201Z,14.56
2022-10-22T07:47:40.214Z,14.99
2022-10-22T07:57:40.142Z,15.43
2022-10-22T08:07:40.330Z,16.18
2022-10-22T08:17:41.025Z,16.58
2022-10-22T08:27:40.763Z,16.33
2022-10-22T08:37:41.085Z,16.03
2022-10-22T08:47:41.027Z,16.31
2022-10-22T08:57:41.176Z,16.63
2022-10-22T09:07:41.716Z,16.34
2022-10-22T09:17:41.825Z,16.41
2022-10-22T09:27:42.060Z,16.81
2022-10-22T09:37:41.753Z,17.53
2022-10-22T09:47:57.315Z,17.26
2022-10-22T09:57:44.460Z,17.69
2022-10-22T10:07:42.872Z,17.88
2022-10-22T10:17:42.830Z,18.39
2022-10-22T10:27:42.576Z,18.64
2022-10-22T10:37:42.724Z,18.90
2022-10-22T10:47:43.429Z,18.77
2022-10-22T10:57:43.394Z,18.76
2022-10-22T11:07:43.222Z,19.10
2022-10-22T11:17:43.349Z,19.17
2022-10-22T11:27:44.291Z,18.97
2022-10-22T11:37:43.874Z,19.54
2022-10-22T11:47:43.969Z,19.32
2022-10-22T11:57:44.478Z,19.75
2022-10-22T12:07:44.333Z,19.47
2022-10-22T12:17:44.365Z,20.61
2022-10-22T12:27:44.781Z,21.16
2022-10-22T12:37:45.063Z,20.91
2022-10-22T12:47:44.917Z,21.41
2022-10-22T12:57:45.080Z,21.41
2022-10-22T13:07:45.351Z,21.38
2022-10-22T13:17:45.810Z,21.13
2022-10-22T13:27:45.704Z,21.09
2022-10-22T13:37:45.929Z,21.44
2022-10-22T13:47:45.945Z,22.06
2022-10-22T13:57:46.103Z,21.90
2022-10-22T14:07:46.388Z,22.16
2022-10-22T14:17:46.536Z,21.97
2022-10-22T14:27:46.678Z,22.07
2022-10-22T14:37:46.765Z,22.02
2022-10-22T14:47:48.193Z,21.66
2022-10-22T14:57:47.161Z,20.96
2022-10-22T15:07:47.323Z,20.25
2022-10-22T15:17:47.747Z,19.57
2022-10-22T15:27:50.372Z,18.57
2022-10-22T15:37:47.813Z,17.91
2022-10-22T15:47:48.412Z,16.86
2022-10-22T15:57:48.152Z,16.35
2022-10-22T16:07:48.267Z,16.06
2022-10-22T16:17:48.401Z,15.81
2022-10-22T16:27:48.588Z,15.61
2022-10-22T16:37:48.719Z,15.09
2022-10-22T16:47:48.979Z,14.86
2022-10-22T16:57:49.014Z,14.53
2022-10-22T17:07:49.309Z,14.32
2022-10-22T17:17:49.561Z,13.81
2022-10-22T17:27:49.554Z,13.32
2022-10-22T17:37:49.693Z,13.06
2022-10-22T17:47:49.897Z,13.20
2022-10-22T17:57:50.050Z,13.44
2022-10-22T18:07:50.350Z,13.36
2022-10-22T18:17:50.690Z,13.67
2022-10-22T18:27:50.523Z,13.25
2022-10-22T18:37:50.660Z,12.84
2022-10-22T18:47:50.999Z,12.74
2022-10-22T18:57:50.919Z,12.81
2022-10-22T19:07:51.104Z,12.63
2022-10-22T19:17:51.244Z,12.54
2022-10-22T19:27:51.685Z,12.26
2022-10-22T19:37:51.903Z,12.37
2022-10-22T19:47:51.898Z,12.26
2022-10-22T19:57:51.870Z,12.21
2022-10-22T20:07:52.052Z,12.24
2022-10-22T20:17:52.180Z,12.11
2022-10-22T20:27:52.399Z,12.05
2022-10-22T20:37:52.649Z,12.02
2022-10-22T20:48:01.881Z,12.19
2022-10-22T20:57:54.127Z,12.39
2022-10-22T21:07:53.108Z,12.33
2022-10-22T21:17:53.190Z,12.34
2022-10-22T21:27:53.395Z,12.48
2022-10-22T21:37:53.573Z,12.20
2022-10-22T21:47:53.770Z,11.87
2022-10-22T21:57:53.952Z,11.68
2022-10-22T22:07:54.276Z,11.56
2022-10-22T22:17:54.297Z,12.01
2022-10-22T22:27:54.481Z,12.16
2022-10-22T22:37:54.758Z,12.13
2022-10-22T22:47:54.864Z,11.97
2022-10-22T22:57:55.016Z,11.89
2022-10-22T23:07:55.202Z,11.68
2022-10-22T23:17:55.337Z,12.01
2022-10-22T23:27:55.527Z,12.08
2022-10-22T23:37:55.664Z,11.89
2022-10-22T23:47:56.117Z,11.71
2022-10-22T23:57:56.064Z,11.49
